Time;durP1;ratioP1;P1;durP2;ratioP2;P2;SDS_P1;SDS_P2;PMS_P1;PMS_P2;Temp;Humidity;BMP_temperature;BMP_pressure;BME280_temperature;BME280_humidity;BME280_pressure;Samples;Min_cycle;Max_cycle;Signal;HPM_P1;HPM_P2
2021/09/10 00:00:34;;;;;;;8.88;7.93;;;;;;;12.84;100.00;93082.50;2103835;28;20025;-80
2021/09/10 00:01:36;;;;;;;9.23;8.32;;;;;;;12.82;100.00;93079.53;2106613;27;20031;-82
2021/09/10 00:02:37;;;;;;;10.70;8.35;;;;;;;12.74;100.00;93078.22;2115564;28;20026;-81
2021/09/10 00:03:39;;;;;;;9.55;8.65;;;;;;;12.83;100.00;93091.75;2124252;27;20019;-81
2021/09/10 00:04:40;;;;;;;9.35;7.97;;;;;;;13.02;100.00;93081.97;2123823;27;20023;-79
2021/09/10 00:05:41;;;;;;;9.27;8.27;;;;;;;13.07;100.00;93087.53;2115549;28;20027;-79
2021/09/10 00:06:43;;;;;;;9.65;8.65;;;;;;;12.96;100.00;93087.13;2107031;28;20020;-82
2021/09/10 00:07:44;;;;;;;9.98;8.98;;;;;;;12.82;100.00;93079.53;2090938;27;20063;-82
2021/09/10 00:08:47;;;;;;;9.90;8.90;;;;;;;12.87;100.00;93081.66;2098511;28;20032;-80
2021/09/10 00:09:48;;;;;;;10.10;9.20;;;;;;;12.90;100.00;93078.09;2099950;28;20111;-79
2021/09/10 00:10:52;;;;;;;9.60;8.70;;;;;;;12.98;100.00;93075.94;2112005;28;20031;-78
2021/09/10 00:11:53;;;;;;;10.23;9.27;;;;;;;12.98;100.00;93084.00;2106741;28;20024;-81
2021/09/10 00:12:54;;;;;;;10.82;9.70;;;;;;;12.92;100.00;93078.44;2117094;27;20030;-79
2021/09/10 00:13:59;;;;;;;10.85;9.52;;;;;;;12.94;100.00;93081.41;2124001;27;20075;-83
2021/09/10 00:15:02;;;;;;;9.98;8.98;;;;;;;13.01;100.00;93078.53;2115965;28;20072;-82
2021/09/10 00:16:07;;;;;;;10.80;9.80;;;;;;;12.96;100.00;93087.13;2124109;27;20023;-81
2021/09/10 00:17:08;;;;;;;12.80;8.90;;;;;;;13.00;100.00;93074.34;2124011;27;20094;-78
2021/09/10 00:18:10;;;;;;;11.05;9.13;;;;;;;12.93;100.00;93082.59;2115541;28;20487;-82
2021/09/10 00:19:11;;;;;;;10.35;9.35;;;;;;;12.84;100.00;93080.56;2124013;27;20042;-82
2021/09/10 00:20:15;;;;;;;10.88;9.88;;;;;;;12.94;100.00;93084.09;2123803;27;20487;-79
2021/09/10 00:21:16;;;;;;;11.02;9.90;;;;;;;12.89;100.00;93083.91;2106739;28;20082;-80
2021/09/10 00:22:19;;;;;;;10.65;9.57;;;;;;;12.93;100.00;93079.19;2095245;28;20054;-78
2021/09/10 00:23:20;;;;;;;9.82;8.90;;;;;;;12.90;100.00;93080.03;2114249;28;20020;-79
2021/09/10 00:24:21;;;;;;;10.48;9.48;;;;;;;12.85;100.00;93089.38;2114581;28;20502;-82
2021/09/10 00:25:23;;;;;;;10.90;9.77;;;;;;;12.87;100.00;93086.28;2115367;28;20055;-79
2021/09/10 00:26:24;;;;;;;10.23;9.20;;;;;;;12.82;100.00;93082.94;2116061;28;20012;-79
2021/09/10 00:27:25;;;;;;;10.77;9.25;;;;;;;12.93;100.00;93079.94;2116152;27;20384;-80
2021/09/10 00:28:26;;;;;;;10.57;9.48;;;;;;;12.88;100.00;93082.41;2123920;27;20032;-81
2021/09/10 00:29:27;;;;;;;10.38;9.18;;;;;;;12.92;100.00;93070.38;2115496;28;20034;-83
2021/09/10 00:30:29;;;;;;;11.15;10.05;;;;;;;12.88;100.00;93077.78;2123086;27;20525;-82
2021/09/10 00:31:30;;;;;;;13.57;8.90;;;;;;;12.94;100.00;93076.06;2124411;27;20027;-81
2021/09/10 00:32:31;;;;;;;10.55;9.55;;;;;;;12.97;100.00;93077.13;2124486;27;20110;-80
2021/09/10 00:33:34;;;;;;;10.73;9.63;;;;;;;12.95;100.00;93074.91;2123877;27;20033;-79
2021/09/10 00:34:35;;;;;;;11.27;10.20;;;;;;;12.97;100.00;93075.19;2115764;27;20388;-80
2021/09/10 00:35:36;;;;;;;13.10;10.38;;;;;;;12.89;100.00;93079.28;2107945;28;20027;-80
2021/09/10 00:36:37;;;;;;;10.25;9.35;;;;;;;12.87;100.00;93078.22;2106940;28;20028;-79
2021/09/10 00:37:38;;;;;;;11.05;8.95;;;;;;;12.95;100.00;93074.91;2105517;28;20404;-79
2021/09/10 00:38:40;;;;;;;9.98;9.05;;;;;;;12.99;100.00;93072.81;2106484;28;20107;-77
2021/09/10 00:39:41;;;;;;;11.05;9.95;;;;;;;12.94;100.00;93069.94;2118428;27;20069;-82
2021/09/10 00:40:44;;;;;;;9.80;8.90;;;;;;;12.91;100.00;93076.19;2115126;27;20024;-80
2021/09/10 00:41:46;;;;;;;10.45;9.25;;;;;;;13.10;100.00;93072.50;2115421;28;20027;-82
2021/09/10 00:42:47;;;;;;;13.00;8.75;;;;;;;13.02;100.00;93076.59;2129269;27;20106;-83
2021/09/10 00:43:48;;;;;;;11.05;9.68;;;;;;;12.97;100.00;93072.50;2132441;27;20471;-81
2021/09/10 00:44:49;;;;;;;12.25;10.38;;;;;;;12.97;100.00;93064.47;2123846;27;20033;-79
2021/09/10 00:45:51;;;;;;;11.93;9.55;;;;;;;12.92;100.00;93075.75;2115426;28;20054;-82
2021/09/10 00:46:52;;;;;;;10.80;9.52;;;;;;;12.92;100.00;93070.38;2115527;28;20020;-80
2021/09/10 00:47:55;;;;;;;11.25;9.95;;;;;;;12.91;100.00;93073.50;2115443;27;20059;-80
2021/09/10 00:48:56;;;;;;;10.13;9.02;;;;;;;13.01;100.00;93069.72;2123987;27;20412;-78
2021/09/10 00:49:58;;;;;;;10.35;9.27;;;;;;;13.04;100.00;93068.88;2123406;27;20023;-79
2021/09/10 00:50:59;;;;;;;12.55;9.48;;;;;;;13.00;100.00;93066.28;2115136;28;20023;-80
2021/09/10 00:52:01;;;;;;;10.52;9.52;;;;;;;12.96;100.00;93072.97;2115162;28;20407;-78
2021/09/10 00:53:02;;;;;;;10.40;9.20;;;;;;;13.02;100.00;93071.97;2108439;28;20024;-80
2021/09/10 00:54:03;;;;;;;10.07;9.18;;;;;;;12.99;100.00;93072.06;2115391;28;20511;-81
2021/09/10 00:55:05;;;;;;;10.35;9.35;;;;;;;12.99;100.00;93070.13;2106666;28;20024;-81
2021/09/10 00:56:06;;;;;;;11.07;9.98;;;;;;;13.04;100.00;93066.19;2109707;28;20455;-82
2021/09/10 00:57:07;;;;;;;9.70;8.63;;;;;;;13.13;100.00;93060.91;2115102;28;20544;-81
2021/09/10 00:58:09;;;;;;;10.38;9.48;;;;;;;13.13;100.00;93068.97;2106842;28;20027;-82
2021/09/10 00:59:10;;;;;;;10.05;9.13;;;;;;;13.16;100.00;93070.00;2106816;28;20035;-81
2021/09/10 01:00:11;;;;;;;9.82;8.85;;;;;;;13.18;100.00;93064.97;2106871;28;20642;-84
2021/09/10 01:01:13;;;;;;;10.00;9.05;;;;;;;13.13;100.00;93060.91;2123809;27;20105;-80
2021/09/10 01:02:14;;;;;;;9.93;8.88;;;;;;;13.07;100.00;93068.00;2121060;27;20055;-80
2021/09/10 01:03:16;;;;;;;10.05;9.07;;;;;;;13.21;100.00;93066.78;2119693;27;20019;-83
2021/09/10 01:04:22;;;;;;;12.60;9.40;;;;;;;13.15;100.00;93063.91;2118051;27;20022;-83
2021/09/10 01:05:23;;;;;;;9.63;8.70;;;;;;;13.13;100.00;93068.97;2118580;27;20020;-83
2021/09/10 01:06:26;;;;;;;11.18;9.00;;;;;;;13.14;100.00;93070.47;2119112;27;20423;-79
2021/09/10 01:07:27;;;;;;;9.77;8.88;;;;;;;13.14;100.00;93070.47;2112260;28;20019;-78
2021/09/10 01:08:29;;;;;;;12.63;9.57;;;;;;;13.07;100.00;93063.38;2114081;28;20023;-79
2021/09/10 01:09:31;;;;;;;10.75;9.48;;;;;;;13.19;100.00;93063.78;2115192;28;20035;-82
2021/09/10 01:10:33;;;;;;;10.13;9.05;;;;;;;13.19;100.00;93064.53;2106686;28;20417;-81
2021/09/10 01:11:37;;;;;;;9.05;8.25;;;;;;;13.15;100.00;93063.91;2106505;28;20032;-82
2021/09/10 01:12:40;;;;;;;10.23;9.23;;;;;;;13.19;100.00;93064.53;2107170;28;20049;-81
2021/09/10 01:13:44;;;;;;;10.05;9.13;;;;;;;13.21;100.00;93069.47;2106875;28;20020;-78
2021/09/10 01:14:46;;;;;;;12.65;9.43;;;;;;;13.11;100.00;93066.69;2107093;28;20056;-80
2021/09/10 01:15:47;;;;;;;10.20;9.20;;;;;;;13.11;100.00;93068.63;2098299;28;20020;-80
2021/09/10 01:16:50;;;;;;;10.38;9.27;;;;;;;13.12;100.00;93064.75;2098358;28;20065;-81
2021/09/10 01:17:51;;;;;;;11.20;8.95;;;;;;;13.06;100.00;93061.88;2106895;28;20133;-81
2021/09/10 01:18:53;;;;;;;12.07;8.63;;;;;;;13.12;100.00;93054.03;2106629;28;20024;-80
2021/09/10 01:19:56;;;;;;;9.40;8.50;;;;;;;13.14;100.00;93064.34;2105298;28;20028;-83
2021/09/10 01:20:58;;;;;;;10.40;9.40;;;;;;;13.18;100.00;93059.59;2098681;28;20810;-80
2021/09/10 01:22:02;;;;;;;9.48;8.45;;;;;;;13.13;100.00;93060.91;2106400;28;20020;-80
2021/09/10 01:23:03;;;;;;;9.50;8.60;;;;;;;13.14;100.00;93067.03;2109129;28;20031;-80
2021/09/10 01:24:06;;;;;;;10.25;9.25;;;;;;;13.03;100.00;93068.09;2114896;28;20494;-80
2021/09/10 01:25:15;;;;;;;9.93;9.02;;;;;;;13.11;100.00;93064.00;2123430;27;20456;-81
2021/09/10 01:26:16;;;;;;;10.55;9.27;;;;;;;13.09;100.00;93060.28;2122554;27;20522;-83
2021/09/10 01:27:17;;;;;;;9.90;8.93;;;;;;;13.03;100.00;93060.03;2110194;28;20023;-81
2021/09/10 01:28:19;;;;;;;10.75;8.35;;;;;;;13.14;100.00;93067.03;2114246;28;20047;-81
2021/09/10 01:29:20;;;;;;;9.50;8.60;;;;;;;13.06;100.00;93061.88;2123519;27;20030;-82
2021/09/10 01:30:28;;;;;;;10.23;9.23;;;;;;;13.07;100.00;93063.38;2106390;28;20024;-83
2021/09/10 01:31:31;;;;;;;10.00;9.00;;;;;;;13.08;100.00;93062.22;2100140;28;20047;-81
2021/09/10 01:32:32;;;;;;;10.25;8.90;;;;;;;13.15;100.00;93063.16;2106729;28;20111;-83
2021/09/10 01:33:34;;;;;;;10.25;8.85;;;;;;;13.16;100.00;93061.97;2114882;28;20055;-78
2021/09/10 01:34:36;;;;;;;13.18;9.27;;;;;;;13.13;100.00;93062.84;2123338;27;20023;-82
2021/09/10 01:35:40;;;;;;;11.82;9.30;;;;;;;13.17;100.00;93055.41;2114698;28;20028;-78
2021/09/10 01:36:41;;;;;;;11.80;9.02;;;;;;;13.16;100.00;93059.28;2106856;28;20016;-80
2021/09/10 01:37:43;;;;;;;9.68;8.68;;;;;;;13.15;100.00;93063.91;2105541;28;20027;-80
2021/09/10 01:38:45;;;;;;;10.35;9.38;;;;;;;13.15;100.00;93063.16;2106611;28;20488;-80
2021/09/10 01:39:48;;;;;;;9.68;8.73;;;;;;;13.17;100.00;93058.09;2114876;28;20023;-79
2021/09/10 01:40:49;;;;;;;10.43;9.43;;;;;;;13.15;100.00;93068.50;2114661;28;20016;-83
2021/09/10 01:41:50;;;;;;;10.93;9.70;;;;;;;13.10;100.00;93062.50;2106272;28;20032;-79
2021/09/10 01:42:53;;;;;;;10.70;9.60;;;;;;;13.09;100.00;93068.31;2095919;28;20031;-82
2021/09/10 01:43:54;;;;;;;10.23;9.23;;;;;;;13.11;100.00;93065.94;2098735;28;20424;-82
2021/09/10 01:44:55;;;;;;;9.68;8.77;;;;;;;13.11;100.00;93063.25;2106445;28;20035;-81
2021/09/10 01:45:56;;;;;;;11.50;9.85;;;;;;;13.03;100.00;93067.34;2089709;28;20028;-82
2021/09/10 01:46:57;;;;;;;10.02;9.05;;;;;;;13.02;100.00;93068.53;2098003;28;20043;-80
2021/09/10 01:47:59;;;;;;;10.63;9.23;;;;;;;13.03;100.00;93060.03;2099646;28;20033;-79
2021/09/10 01:49:00;;;;;;;11.57;8.93;;;;;;;13.08;100.00;93064.91;2098291;28;20093;-79
2021/09/10 01:50:07;;;;;;;10.40;9.40;;;;;;;13.14;100.00;93067.03;2098191;28;20027;-81
2021/09/10 01:51:09;;;;;;;11.15;9.00;;;;;;;13.06;100.00;93064.56;2107339;28;20396;-83
2021/09/10 01:52:10;;;;;;;9.38;8.55;;;;;;;13.14;100.00;93062.41;2115188;28;20110;-79
2021/09/10 01:53:13;;;;;;;9.93;9.02;;;;;;;13.09;100.00;93066.38;2115249;28;20368;-80
2021/09/10 01:54:15;;;;;;;10.65;8.88;;;;;;;13.12;100.00;93059.38;2115327;28;20019;-81
2021/09/10 01:55:16;;;;;;;9.55;8.68;;;;;;;13.20;100.00;93059.91;2110826;28;20093;-81
2021/09/10 01:56:17;;;;;;;10.73;9.25;;;;;;;13.17;100.00;93066.13;2106943;28;20027;-82
2021/09/10 01:57:20;;;;;;;9.45;8.45;;;;;;;13.10;100.00;93064.44;2106729;28;20028;-82
2021/09/10 01:58:21;;;;;;;10.13;9.13;;;;;;;13.16;100.00;93064.66;2106230;28;20024;-82
2021/09/10 01:59:22;;;;;;;9.18;8.27;;;;;;;13.14;100.00;93067.03;2103386;28;20028;-82
2021/09/10 02:00:24;;;;;;;9.07;8.20;;;;;;;13.07;100.00;93066.06;2106306;28;20062;-78
2021/09/10 02:01:30;;;;;;;9.73;8.82;;;;;;;13.05;100.00;93065.75;2106555;28;20044;-80
2021/09/10 02:02:31;;;;;;;11.77;8.43;;;;;;;13.04;100.00;93061.56;2107944;28;20416;-81
2021/09/10 02:03:32;;;;;;;13.55;9.65;;;;;;;12.96;100.00;93062.97;2106792;28;20020;-81
2021/09/10 02:04:33;;;;;;;10.40;9.30;;;;;;;12.93;100.00;93069.19;2106261;28;20443;-82
2021/09/10 02:07:18;;;;;;;9.65;8.27;;;;;;;13.05;100.00;93065.75;2139578;27;20177;-84
2021/09/10 02:08:20;;;;;;;10.85;9.05;;;;;;;13.04;100.00;93066.94;2127120;27;20035;-82
2021/09/10 02:09:21;;;;;;;10.02;9.02;;;;;;;13.07;100.00;93063.38;2105041;28;20032;-82
2021/09/10 02:10:22;;;;;;;10.85;9.43;;;;;;;13.06;100.00;93061.13;2113795;27;20051;-81
2021/09/10 02:11:23;;;;;;;9.63;8.63;;;;;;;13.05;100.00;93065.00;2130443;27;20050;-82
2021/09/10 02:12:24;;;;;;;10.20;8.75;;;;;;;13.08;100.00;93062.22;2130403;27;20459;-83
2021/09/10 02:13:27;;;;;;;10.00;8.98;;;;;;;13.08;100.00;93061.44;2131033;27;20050;-78
2021/09/10 02:14:29;;;;;;;9.57;8.43;;;;;;;13.09;100.00;93061.03;2130446;27;20023;-81
2021/09/10 02:15:30;;;;;;;8.98;8.13;;;;;;;13.16;100.00;93064.66;2129862;27;20555;-81
2021/09/10 02:16:32;;;;;;;10.32;8.85;;;;;;;13.13;100.00;93058.22;2128981;27;20027;-81
2021/09/10 02:17:33;;;;;;;9.35;8.55;;;;;;;13.15;100.00;93058.53;2121125;27;20468;-81
2021/09/10 02:18:35;;;;;;;10.32;9.35;;;;;;;13.16;100.00;93059.28;2113445;28;20111;-81
2021/09/10 02:19:36;;;;;;;9.55;8.65;;;;;;;13.11;100.00;93057.91;2121006;28;20411;-82
2021/09/10 02:20:37;;;;;;;10.35;8.45;;;;;;;13.15;100.00;93057.78;2128294;27;20123;-83
2021/09/10 02:21:38;;;;;;;9.05;8.25;;;;;;;13.13;100.00;93058.22;2129903;27;20019;-81
2021/09/10 02:22:40;;;;;;;10.15;9.13;;;;;;;13.11;100.00;93064.00;2113228;28;20031;-80
2021/09/10 02:23:41;;;;;;;10.00;8.73;;;;;;;13.08;100.00;93054.16;2113452;27;20059;-79
2021/09/10 02:24:43;;;;;;;9.75;8.75;;;;;;;13.07;100.00;93060.69;2113223;28;20020;-81
2021/09/10 02:25:44;;;;;;;10.23;9.23;;;;;;;13.07;100.00;93058.00;2105155;28;20079;-81
2021/09/10 02:26:45;;;;;;;10.48;8.75;;;;;;;12.99;100.00;93061.34;2113136;28;20020;-80
2021/09/10 02:27:46;;;;;;;9.32;8.43;;;;;;;13.01;100.00;93067.03;2124934;27;20018;-79
2021/09/10 02:28:48;;;;;;;9.25;8.35;;;;;;;12.99;100.00;93056.72;2130247;27;20023;-84
2021/09/10 02:29:49;;;;;;;10.95;8.40;;;;;;;13.00;100.00;93052.88;2121674;27;20032;-85
2021/09/10 02:30:50;;;;;;;9.60;8.60;;;;;;;13.06;100.00;93063.81;2121937;27;20527;-80
2021/09/10 02:31:51;;;;;;;9.55;8.68;;;;;;;13.06;100.00;93051.13;2130347;27;20717;-83
2021/09/10 02:32:52;;;;;;;11.52;9.90;;;;;;;12.93;100.00;93053.09;2113224;28;20032;-83
2021/09/10 02:33:54;;;;;;;10.77;8.90;;;;;;;12.99;100.00;93059.41;2113359;27;20015;-81
2021/09/10 02:34:55;;;;;;;9.02;8.18;;;;;;;13.01;100.00;93050.94;2130347;27;20046;-79
2021/09/10 02:35:57;;;;;;;10.23;9.20;;;;;;;12.96;100.00;93054.19;2130202;27;20034;-82
2021/09/10 02:36:58;;;;;;;9.48;8.48;;;;;;;12.97;100.00;93056.41;2121536;28;20023;-82
2021/09/10 02:37:59;;;;;;;9.48;8.52;;;;;;;12.96;100.00;93054.94;2120280;28;20119;-83
2021/09/10 02:39:05;;;;;;;11.27;8.95;;;;;;;12.95;100.00;93048.06;2124714;27;20027;-78
2021/09/10 02:40:08;;;;;;;9.73;8.85;;;;;;;12.96;100.00;93046.88;2125104;27;20022;-83
2021/09/10 02:41:10;;;;;;;11.40;8.95;;;;;;;12.92;100.00;93056.97;2130139;27;20088;-81
2021/09/10 02:42:11;;;;;;;9.43;8.43;;;;;;;12.99;100.00;93050.63;2130246;27;20015;-82
2021/09/10 02:43:12;;;;;;;9.30;8.50;;;;;;;12.99;100.00;93051.34;2130620;27;20019;-81
2021/09/10 02:44:14;;;;;;;9.68;8.77;;;;;;;13.00;100.00;93050.19;2130910;27;20019;-82
2021/09/10 02:45:15;;;;;;;9.52;8.60;;;;;;;12.99;100.00;93042.56;2130655;27;20371;-82
2021/09/10 02:46:16;;;;;;;9.15;8.25;;;;;;;12.98;100.00;93043.75;2121507;28;20110;-81
2021/09/10 02:47:17;;;;;;;9.40;8.65;;;;;;;12.97;100.00;93048.38;2113204;27;20557;-83
2021/09/10 02:48:19;;;;;;;10.15;8.73;;;;;;;12.96;100.00;93046.13;2121577;27;20480;-82
2021/09/10 02:49:21;;;;;;;8.70;7.88;;;;;;;12.93;100.00;93050.41;2118144;28;20015;-84
2021/09/10 02:50:22;;;;;;;9.57;8.73;;;;;;;12.98;100.00;93046.44;2121623;28;20528;-79
2021/09/10 02:51:23;;;;;;;10.88;9.88;;;;;;;12.93;100.00;93042.38;2127352;27;20019;-81
2021/09/10 02:52:25;;;;;;;10.02;9.02;;;;;;;12.91;100.00;93052.03;2130065;27;20015;-81
2021/09/10 02:53:30;;;;;;;10.23;9.15;;;;;;;12.89;100.00;93055.13;2130033;27;20011;-79
2021/09/10 02:54:31;;;;;;;9.68;8.65;;;;;;;12.82;100.00;93042.72;2121479;27;20031;-83
2021/09/10 02:55:32;;;;;;;10.40;9.25;;;;;;;12.93;100.00;93046.97;2121547;28;20460;-84
2021/09/10 02:56:34;;;;;;;9.85;8.88;;;;;;;12.83;100.00;93046.16;2121631;27;20027;-82
2021/09/10 02:57:35;;;;;;;10.20;9.20;;;;;;;12.82;100.00;93044.66;2129866;27;20026;-80
2021/09/10 02:58:37;;;;;;;10.45;9.45;;;;;;;12.85;100.00;93043.78;2129851;27;20031;-82
2021/09/10 02:59:39;;;;;;;10.05;9.07;;;;;;;12.85;100.00;93044.50;2130780;27;20506;-78
2021/09/10 03:00:40;;;;;;;10.35;9.40;;;;;;;12.83;100.00;93051.50;2121234;28;20031;-78
2021/09/10 03:01:44;;;;;;;9.48;8.68;;;;;;;12.86;100.00;93042.59;2113168;27;20028;-82
2021/09/10 03:02:45;;;;;;;10.02;9.02;;;;;;;12.88;100.00;93042.16;2121397;28;20055;-81
2021/09/10 03:03:46;;;;;;;9.48;8.55;;;;;;;12.88;100.00;93040.22;2104515;28;20720;-82
2021/09/10 03:04:47;;;;;;;11.05;9.02;;;;;;;12.84;100.00;93050.31;2102080;28;20024;-82
2021/09/10 03:05:50;;;;;;;9.65;8.73;;;;;;;12.85;100.00;93035.72;2116647;28;20024;-81
2021/09/10 03:06:51;;;;;;;11.63;9.38;;;;;;;12.80;100.00;93039.69;2121391;27;20048;-78
2021/09/10 03:07:52;;;;;;;10.25;9.25;;;;;;;12.82;100.00;93041.97;2129277;27;20026;-82
2021/09/10 03:08:55;;;;;;;12.95;10.13;;;;;;;12.86;100.00;93034.53;2122011;27;20023;-80
2021/09/10 03:09:57;;;;;;;9.48;8.65;;;;;;;12.83;100.00;93036.16;2112361;28;20036;-79
2021/09/10 03:10:58;;;;;;;11.95;9.45;;;;;;;12.78;100.00;93042.06;2111557;28;20036;-81
2021/09/10 03:11:59;;;;;;;10.27;9.27;;;;;;;12.81;100.00;93037.75;2113027;28;20027;-81
2021/09/10 03:13:00;;;;;;;9.93;8.93;;;;;;;12.82;100.00;93031.97;2112925;28;20026;-81
2021/09/10 03:14:01;;;;;;;10.07;8.77;;;;;;;12.88;100.00;93045.59;2104548;28;20028;-82
2021/09/10 03:15:08;;;;;;;9.07;8.23;;;;;;;12.92;100.00;93030.13;2113085;28;20372;-84
2021/09/10 03:16:10;;;;;;;9.43;8.52;;;;;;;12.87;100.00;93029.94;2121409;28;20093;-80
2021/09/10 03:17:11;;;;;;;9.98;8.93;;;;;;;12.92;100.00;93040.13;2112771;28;20048;-84
2021/09/10 03:18:12;;;;;;;11.43;9.13;;;;;;;12.87;100.00;93032.63;2115786;28;20093;-80
2021/09/10 03:19:13;;;;;;;11.65;9.20;;;;;;;12.87;100.00;93038.75;2113352;28;20023;-80
2021/09/10 03:20:15;;;;;;;9.18;8.27;;;;;;;12.87;100.00;93036.06;2107136;28;20020;-81
2021/09/10 03:21:16;;;;;;;9.63;8.73;;;;;;;12.89;100.00;93033.69;2102724;28;20020;-83
2021/09/10 03:22:17;;;;;;;9.77;8.75;;;;;;;12.90;100.00;93032.50;2109791;28;20028;-83
2021/09/10 03:23:18;;;;;;;9.82;8.82;;;;;;;12.91;100.00;93034.00;2110216;28;20103;-82
2021/09/10 03:24:20;;;;;;;9.60;8.70;;;;;;;12.79;100.00;93032.84;2100865;28;20412;-80
2021/09/10 03:25:23;;;;;;;10.23;9.13;;;;;;;12.84;100.00;93037.66;2097943;28;20067;-79
2021/09/10 03:26:24;;;;;;;10.25;9.23;;;;;;;12.78;100.00;93033.28;2110976;28;20020;-83
2021/09/10 03:27:27;;;;;;;13.30;8.90;;;;;;;12.86;100.00;93037.22;2109243;28;20028;-83
2021/09/10 03:28:28;;;;;;;9.95;8.23;;;;;;;12.99;100.00;93034.50;2111494;28;20047;-80
2021/09/10 03:29:29;;;;;;;10.48;9.30;;;;;;;12.91;100.00;93031.31;2104970;28;20024;-78
2021/09/10 03:30:31;;;;;;;10.13;9.10;;;;;;;12.84;100.00;93026.19;2098415;28;20098;-79
2021/09/10 03:31:32;;;;;;;11.90;9.23;;;;;;;12.88;100.00;93029.50;2105489;28;20489;-85
2021/09/10 03:32:34;;;;;;;9.60;8.70;;;;;;;12.89;100.00;93024.88;2112835;28;20039;-79
2021/09/10 03:33:35;;;;;;;11.98;8.90;;;;;;;12.93;100.00;93026.28;2111468;28;20024;-83
2021/09/10 03:34:36;;;;;;;10.88;9.60;;;;;;;12.94;100.00;93024.34;2103530;28;20062;-81
2021/09/10 03:35:39;;;;;;;10.38;9.48;;;;;;;12.88;100.00;93028.75;2101753;28;20047;-82
2021/09/10 03:36:40;;;;;;;9.50;8.45;;;;;;;12.83;100.00;93030.81;2109056;28;20095;-84
2021/09/10 03:37:41;;;;;;;11.50;9.68;;;;;;;12.89;100.00;93031.00;2107921;28;20020;-79
2021/09/10 03:38:42;;;;;;;10.05;9.05;;;;;;;12.95;100.00;93020.47;2111041;28;20376;-79
2021/09/10 03:39:44;;;;;;;12.90;9.10;;;;;;;13.01;100.00;93024.84;2111069;28;20032;-81
2021/09/10 03:40:46;;;;;;;10.80;9.48;;;;;;;12.97;100.00;93023.47;2113090;28;20416;-80
2021/09/10 03:41:47;;;;;;;10.43;9.20;;;;;;;12.93;100.00;93026.28;2105007;28;20062;-81
2021/09/10 03:42:48;;;;;;;9.95;9.02;;;;;;;12.95;100.00;93020.47;2106666;28;20115;-80
2021/09/10 03:43:52;;;;;;;10.55;8.65;;;;;;;12.93;100.00;93020.91;2106600;28;20057;-83
2021/09/10 03:44:54;;;;;;;8.77;7.95;;;;;;;12.95;100.00;93023.91;2107361;28;20036;-81
2021/09/10 03:45:55;;;;;;;9.93;8.88;;;;;;;12.93;100.00;93023.59;2106935;28;20020;-82
2021/09/10 03:46:59;;;;;;;9.40;8.45;;;;;;;12.97;100.00;93029.59;2106526;28;20419;-82
2021/09/10 03:48:00;;;;;;;11.43;9.65;;;;;;;12.95;100.00;93023.91;2109092;28;20087;-81
2021/09/10 03:49:01;;;;;;;9.80;8.90;;;;;;;13.04;100.00;93024.00;2112921;28;20019;-81
2021/09/10 03:50:03;;;;;;;10.52;8.80;;;;;;;13.02;100.00;93025.59;2105534;28;20082;-83
2021/09/10 03:51:05;;;;;;;10.75;9.65;;;;;;;12.97;100.00;93026.91;2098738;28;20020;-79
2021/09/10 03:52:07;;;;;;;9.90;8.93;;;;;;;12.93;100.00;93026.28;2106205;28;20393;-83
2021/09/10 03:53:08;;;;;;;13.57;10.00;;;;;;;12.95;100.00;93020.47;2103150;28;20020;-82
2021/09/10 03:54:10;;;;;;;9.60;8.70;;;;;;;13.00;100.00;93020.69;2112315;28;20102;-82
2021/09/10 03:55:14;;;;;;;9.93;8.90;;;;;;;12.98;100.00;93020.34;2113909;28;20384;-83
2021/09/10 03:56:15;;;;;;;12.63;9.55;;;;;;;13.00;100.00;93020.69;2111459;28;20028;-82
2021/09/10 03:57:17;;;;;;;10.63;9.35;;;;;;;12.95;100.00;93020.47;2105247;28;20048;-81
2021/09/10 03:58:18;;;;;;;10.57;9.50;;;;;;;12.83;100.00;93027.38;2113854;28;20377;-82
2021/09/10 03:59:19;;;;;;;11.73;9.13;;;;;;;12.80;100.00;93022.84;2120166;27;20023;-79
2021/09/10 04:00:20;;;;;;;10.15;9.20;;;;;;;12.77;100.00;93029.81;2120260;27;20026;-82
2021/09/10 04:01:22;;;;;;;9.43;8.43;;;;;;;12.76;100.00;93022.97;2113812;28;20031;-79
2021/09/10 04:02:23;;;;;;;12.30;9.63;;;;;;;12.67;100.00;93022.88;2105344;28;20038;-80
2021/09/10 04:03:26;;;;;;;9.82;8.82;;;;;;;12.75;100.00;93021.47;2110222;28;20031;-81
2021/09/10 04:04:27;;;;;;;12.35;8.45;;;;;;;12.83;100.00;93022.75;2106613;28;20492;-80
2021/09/10 04:05:28;;;;;;;10.98;9.07;;;;;;;12.82;100.00;93026.63;2098241;28;20032;-79
2021/09/10 04:06:29;;;;;;;9.45;8.38;;;;;;;12.78;100.00;93025.22;2114886;28;20107;-82
2021/09/10 04:07:30;;;;;;;9.90;8.60;;;;;;;12.80;100.00;93025.53;2115676;28;20076;-81
2021/09/10 04:08:32;;;;;;;9.52;8.57;;;;;;;12.68;100.00;93023.63;2105384;28;20461;-83
2021/09/10 04:09:33;;;;;;;8.93;8.13;;;;;;;12.66;100.00;93029.41;2096509;28;20020;-80
2021/09/10 04:10:35;;;;;;;9.45;8.55;;;;;;;12.68;100.00;93029.72;2113062;28;20416;-81
2021/09/10 04:11:37;;;;;;;10.52;7.88;;;;;;;12.70;100.00;93019.34;2109404;28;20040;-79
2021/09/10 04:12:38;;;;;;;8.77;7.85;;;;;;;12.67;100.00;93024.81;2112682;28;20740;-82
2021/09/10 04:13:40;;;;;;;9.98;8.65;;;;;;;12.71;100.00;93025.44;2102150;28;20365;-81
2021/09/10 04:14:41;;;;;;;9.02;8.13;;;;;;;12.77;100.00;93023.72;2104586;28;20024;-82
2021/09/10 04:15:42;;;;;;;9.07;8.20;;;;;;;12.76;100.00;93027.59;2110900;28;20508;-81
2021/09/10 04:16:43;;;;;;;9.85;8.63;;;;;;;12.70;100.00;93032.75;2112702;28;20115;-83
2021/09/10 04:17:45;;;;;;;9.93;8.95;;;;;;;12.75;100.00;93036.81;2110670;28;20032;-80
2021/09/10 04:18:47;;;;;;;9.65;8.35;;;;;;;12.77;100.00;93029.81;2119082;27;20030;-83
2021/09/10 04:19:48;;;;;;;10.40;9.40;;;;;;;12.75;100.00;93031.44;2115202;27;20027;-79
2021/09/10 04:20:49;;;;;;;9.85;8.80;;;;;;;12.73;100.00;93023.06;2114916;28;20085;-84
2021/09/10 04:21:50;;;;;;;11.10;8.52;;;;;;;12.77;100.00;93023.72;2106454;28;20142;-80
2021/09/10 04:22:51;;;;;;;8.95;8.05;;;;;;;12.73;100.00;93026.53;2110341;28;20544;-79
2021/09/10 04:23:53;;;;;;;9.75;8.52;;;;;;;12.77;100.00;93024.47;2113726;28;20020;-82
2021/09/10 04:24:55;;;;;;;10.38;9.23;;;;;;;12.79;100.00;93024.78;2105008;28;20120;-80
2021/09/10 04:25:56;;;;;;;10.80;8.70;;;;;;;12.75;100.00;93026.84;2106275;28;20485;-80
2021/09/10 04:26:57;;;;;;;9.70;8.80;;;;;;;12.76;100.00;93027.59;2095964;28;20477;-81
2021/09/10 04:27:59;;;;;;;10.40;9.32;;;;;;;12.75;100.00;93021.47;2104465;27;20036;-83
2021/09/10 04:29:00;;;;;;;9.55;8.65;;;;;;;12.74;100.00;93019.97;2104180;28;20115;-84
2021/09/10 04:30:03;;;;;;;9.57;8.68;;;;;;;12.74;100.00;93021.91;2097633;28;20047;-82
2021/09/10 04:31:04;;;;;;;11.27;8.70;;;;;;;12.73;100.00;93023.06;2100180;28;20055;-80
2021/09/10 04:32:06;;;;;;;9.57;8.60;;;;;;;12.74;100.00;93028.03;2108721;28;20035;-81
2021/09/10 04:33:09;;;;;;;10.57;9.57;;;;;;;12.74;100.00;93021.91;2112437;28;20104;-82
2021/09/10 04:34:11;;;;;;;10.38;9.27;;;;;;;12.69;100.00;93023.22;2111209;28;20027;-82
2021/09/10 04:35:12;;;;;;;10.30;9.40;;;;;;;12.70;100.00;93024.69;2110689;28;20019;-82
2021/09/10 04:36:17;;;;;;;11.15;9.13;;;;;;;12.78;100.00;93030.59;2112021;28;20076;-81
2021/09/10 04:37:18;;;;;;;10.82;9.18;;;;;;;12.74;100.00;93027.28;2102091;28;20020;-81
2021/09/10 04:38:19;;;;;;;9.95;8.98;;;;;;;12.76;100.00;93033.69;2098143;28;20027;-81
2021/09/10 04:39:20;;;;;;;10.20;9.10;;;;;;;12.78;100.00;93033.28;2114764;28;20068;-83
2021/09/10 04:40:21;;;;;;;9.73;8.70;;;;;;;12.69;100.00;93030.50;2112971;28;20023;-82
2021/09/10 04:41:23;;;;;;;13.00;8.93;;;;;;;12.64;100.00;93033.69;2109755;28;20022;-80
2021/09/10 04:42:24;;;;;;;9.98;8.98;;;;;;;12.67;100.00;93030.16;2113390;28;20026;-81
2021/09/10 04:43:26;;;;;;;9.73;8.90;;;;;;;12.67;100.00;93033.59;2111455;28;20019;-80
2021/09/10 04:44:27;;;;;;;9.48;8.57;;;;;;;12.71;100.00;93034.25;2110739;28;20028;-81
2021/09/10 04:45:28;;;;;;;12.85;8.82;;;;;;;12.74;100.00;93036.06;2111251;28;20080;-79
2021/09/10 04:46:30;;;;;;;9.18;8.32;;;;;;;12.72;100.00;93030.38;2111512;28;20058;-83